Time;durP1;ratioP1;P1;durP2;ratioP2;P2;SDS_P1;SDS_P2;PMS_P1;PMS_P2;Temp;Humidity;BMP_temperature;BMP_pressure;BME280_temperature;BME280_humidity;BME280_pressure;Samples;Min_cycle;Max_cycle;Signal;HPM_P1;HPM_P2
2021/10/22 00:01:15;;;;;;;;;;;;;;;12.60;59.78;100124.53;4922797;28;127650;-59
2021/10/22 00:03:40;;;;;;;;;;;;;;;12.59;59.80;100117.53;4922035;28;128034;-58
2021/10/22 00:06:06;;;;;;;;;;;;;;;12.58;59.78;100118.63;4923526;28;116551;-58
2021/10/22 00:08:33;;;;;;;;;;;;;;;12.56;59.72;100123.50;4921528;28;99491;-59
2021/10/22 00:10:59;;;;;;;;;;;;;;;12.55;59.77;100129.22;4923920;28;98211;-57
2021/10/22 00:13:26;;;;;;;;;;;;;;;12.53;59.94;100130.28;4921816;28;126865;-59
2021/10/22 00:15:52;;;;;;;;;;;;;;;12.51;59.97;100135.19;4921384;28;98397;-61
2021/10/22 00:18:19;;;;;;;;;;;;;;;12.51;59.82;100137.09;4921884;28;128153;-58
2021/10/22 00:20:46;;;;;;;;;;;;;;;12.50;59.89;100141.69;4923869;28;98634;-58
2021/10/22 00:23:12;;;;;;;;;;;;;;;12.48;59.72;100143.06;4922283;28;124366;-57
2021/10/22 00:25:38;;;;;;;;;;;;;;;12.45;59.91;100147.13;4924372;28;98017;-59
2021/10/22 00:28:04;;;;;;;;;;;;;;;12.45;59.67;100154.44;4922034;28;123121;-58
2021/10/22 00:30:30;;;;;;;;;;;;;;;12.43;59.93;100152.03;4921818;28;122416;-61
2021/10/22 00:32:55;;;;;;;;;;;;;;;12.42;59.92;100158.53;4917409;28;128226;-61
2021/10/22 00:35:21;;;;;;;;;;;;;;;12.41;59.86;100156.13;4920202;28;115445;-58
2021/10/22 00:37:47;;;;;;;;;;;;;;;12.40;60.01;100168.03;4922181;28;120429;-57
2021/10/22 00:40:15;;;;;;;;;;;;;;;12.39;59.86;100161.81;4923004;28;100553;-61
2021/10/22 00:42:41;;;;;;;;;;;;;;;12.38;59.94;100162.09;4921797;28;98238;-58
2021/10/22 00:45:08;;;;;;;;;;;;;;;12.36;59.93;100162.38;4923361;28;117664;-59
2021/10/22 00:47:34;;;;;;;;;;;;;;;12.35;59.76;100165.38;4923127;28;99366;-59
2021/10/22 00:50:00;;;;;;;;;;;;;;;12.34;59.97;100167.28;4922632;28;121819;-57
2021/10/22 00:52:27;;;;;;;;;;;;;;;12.33;59.80;100164.84;4922153;28;98003;-59
2021/10/22 00:54:54;;;;;;;;;;;;;;;12.31;59.90;100170.56;4923109;28;113259;-59
2021/10/22 00:57:20;;;;;;;;;;;;;;;12.29;59.85;100167.31;4922523;28;98284;-57
2021/10/22 00:59:49;;;;;;;;;;;;;;;12.29;59.91;100168.13;4915800;28;110172;-58
2021/10/22 01:02:15;;;;;;;;;;;;;;;12.28;59.88;100163.00;4904404;28;98864;-60
2021/10/22 01:04:42;;;;;;;;;;;;;;;12.27;59.79;100166.81;4917125;28;98065;-58
2021/10/22 01:07:08;;;;;;;;;;;;;;;12.26;60.00;100170.59;4915825;28;97932;-59
2021/10/22 01:09:34;;;;;;;;;;;;;;;12.25;59.62;100167.06;4903049;28;98921;-58
2021/10/22 01:12:01;;;;;;;;;;;;;;;12.24;59.88;100167.38;4907663;28;98343;-61
2021/10/22 01:14:28;;;;;;;;;;;;;;;12.23;59.95;100158.47;4921792;28;97819;-58
2021/10/22 01:16:53;;;;;;;;;;;;;;;12.22;59.91;100164.97;4911473;28;108564;-57
2021/10/22 01:19:19;;;;;;;;;;;;;;;12.22;59.85;100169.53;4921443;28;127060;-59
2021/10/22 01:21:46;;;;;;;;;;;;;;;12.19;60.19;100165.53;4922032;28;98363;-57
2021/10/22 01:24:13;;;;;;;;;;;;;;;12.19;59.81;100162.81;4922651;28;98153;-58
2021/10/22 01:26:39;;;;;;;;;;;;;;;12.17;59.83;100166.91;4922452;28;98466;-58
2021/10/22 01:29:05;;;;;;;;;;;;;;;12.16;59.88;100168.78;4903188;28;127848;-61
2021/10/22 01:31:31;;;;;;;;;;;;;;;12.15;59.76;100180.69;4920906;28;123546;-57
2021/10/22 01:33:57;;;;;;;;;;;;;;;12.16;59.88;100181.50;4921454;28;118093;-59
2021/10/22 01:36:24;;;;;;;;;;;;;;;12.13;59.89;100174.75;4887751;28;98597;-59
2021/10/22 01:38:50;;;;;;;;;;;;;;;12.14;59.90;100183.66;4922709;28;98450;-58
2021/10/22 01:41:16;;;;;;;;;;;;;;;12.11;59.70;100178.84;4921899;28;97847;-57
2021/10/22 01:43:43;;;;;;;;;;;;;;;12.10;59.64;100180.72;4902990;28;117196;-57
2021/10/22 01:46:10;;;;;;;;;;;;;;;12.10;59.79;100188.03;4921583;28;97707;-57
2021/10/22 01:48:36;;;;;;;;;;;;;;;12.08;59.74;100184.81;4922702;28;99172;-61
2021/10/22 01:51:03;;;;;;;;;;;;;;;12.07;59.68;100186.72;4936374;28;98172;-60
2021/10/22 01:53:29;;;;;;;;;;;;;;;12.06;59.91;100182.38;4904034;28;98340;-57
2021/10/22 01:55:54;;;;;;;;;;;;;;;12.05;59.83;100188.88;4921769;28;97852;-59
2021/10/22 01:58:20;;;;;;;;;;;;;;;12.03;59.68;100191.88;4921830;28;98271;-61
2021/10/22 02:00:46;;;;;;;;;;;;;;;12.01;59.79;100188.66;4921945;28;102563;-58
2021/10/22 02:03:12;;;;;;;;;;;;;;;12.01;59.72;100191.34;4921051;28;109408;-58
2021/10/22 02:05:38;;;;;;;;;;;;;;;11.98;59.59;100188.41;4922399;28;98900;-59
2021/10/22 02:08:04;;;;;;;;;;;;;;;11.98;59.85;100194.59;4922415;28;98959;-57
2021/10/22 02:10:30;;;;;;;;;;;;;;;11.98;59.87;100193.81;4920555;28;120376;-58
2021/10/22 02:12:57;;;;;;;;;;;;;;;11.96;59.97;100196.81;4920558;28;116598;-57
2021/10/22 02:15:23;;;;;;;;;;;;;;;11.94;59.79;100196.25;4922461;28;98021;-59
2021/10/22 02:17:49;;;;;;;;;;;;;;;11.94;59.95;100192.75;4935783;28;99776;-57
2021/10/22 02:20:15;;;;;;;;;;;;;;;11.93;59.82;100196.56;4921472;28;103709;-58
2021/10/22 02:22:41;;;;;;;;;;;;;;;11.92;59.71;100197.66;4921021;28;98001;-61
2021/10/22 02:25:07;;;;;;;;;;;;;;;11.90;59.87;100191.72;4920593;28;121606;-58
2021/10/22 02:27:34;;;;;;;;;;;;;;;11.89;59.57;100200.91;4921929;28;117360;-59
2021/10/22 02:30:00;;;;;;;;;;;;;;;11.88;59.92;100200.09;4921487;28;98176;-59
2021/10/22 02:32:26;;;;;;;;;;;;;;;11.88;59.86;100197.41;4920265;28;98199;-57
2021/10/22 02:34:52;;;;;;;;;;;;;;;11.86;59.81;100201.47;4920211;28;126759;-61
2021/10/22 02:37:17;;;;;;;;;;;;;;;11.85;59.81;100200.66;4920433;28;127631;-58
2021/10/22 02:39:43;;;;;;;;;;;;;;;11.85;59.73;100205.25;4921377;28;127353;-57
2021/10/22 02:42:09;;;;;;;;;;;;;;;11.84;59.69;100211.75;4920741;28;115577;-58
2021/10/22 02:44:35;;;;;;;;;;;;;;;11.83;59.79;100208.25;4919764;28;128724;-61
2021/10/22 02:47:02;;;;;;;;;;;;;;;11.81;59.59;100210.38;4921046;28;97921;-58
2021/10/22 02:49:28;;;;;;;;;;;;;;;11.82;59.44;100216.59;4921525;28;97793;-57
2021/10/22 02:51:55;;;;;;;;;;;;;;;11.80;59.45;100223.09;4921224;28;97931;-59
2021/10/22 02:54:24;;;;;;;;;;;;;;;11.79;59.78;100220.69;4921030;28;98631;-57
2021/10/22 02:56:50;;;;;;;;;;;;;;;11.78;59.58;100227.16;4921153;28;97890;-58
2021/10/22 02:59:16;;;;;;;;;;;;;;;11.77;59.45;100223.66;4920523;28;125560;-59
2021/10/22 03:01:42;;;;;;;;;;;;;;;11.77;59.56;100222.84;4920017;28;116453;-58
2021/10/22 03:04:09;;;;;;;;;;;;;;;11.75;59.90;100231.22;4921179;28;98955;-58
2021/10/22 03:06:35;;;;;;;;;;;;;;;11.75;59.87;100225.84;4920665;28;116024;-58
2021/10/22 03:09:01;;;;;;;;;;;;;;;11.73;59.83;100222.59;4920431;28;106696;-58
2021/10/22 03:11:27;;;;;;;;;;;;;;;11.72;59.77;100229.09;4921354;28;97726;-61
2021/10/22 03:13:53;;;;;;;;;;;;;;;11.72;59.75;100228.28;4886367;28;98548;-59
2021/10/22 03:16:19;;;;;;;;;;;;;;;11.71;59.76;100232.06;4921003;28;111981;-61
2021/10/22 03:18:45;;;;;;;;;;;;;;;11.69;59.95;100237.75;4901748;28;112790;-60
2021/10/22 03:21:11;;;;;;;;;;;;;;;11.69;59.67;100235.03;4922069;28;97709;-58
2021/10/22 03:23:37;;;;;;;;;;;;;;;11.68;59.72;100235.34;4921271;28;98456;-61
2021/10/22 03:26:03;;;;;;;;;;;;;;;11.67;59.72;100242.63;4934729;28;127896;-62
2021/10/22 03:28:29;;;;;;;;;;;;;;;11.67;59.63;100241.78;4902557;28;115282;-60
2021/10/22 03:30:55;;;;;;;;;;;;;;;11.66;60.06;100249.09;4920395;28;117396;-57
2021/10/22 03:33:21;;;;;;;;;;;;;;;11.65;59.94;100250.19;4919297;28;128201;-61
2021/10/22 03:35:47;;;;;;;;;;;;;;;11.64;60.11;100253.97;4920357;28;128354;-61
2021/10/22 03:38:12;;;;;;;;;;;;;;;11.63;59.78;100255.06;4921338;28;98110;-57
2021/10/22 03:40:38;;;;;;;;;;;;;;;11.63;60.01;100259.66;4920003;28;116894;-59
2021/10/22 03:43:04;;;;;;;;;;;;;;;11.62;60.02;100255.34;4920618;28;127047;-61
2021/10/22 03:45:30;;;;;;;;;;;;;;;11.62;59.82;100263.44;4922941;28;127551;-58
2021/10/22 03:47:56;;;;;;;;;;;;;;;11.60;59.53;100263.72;4923001;28;126808;-60
2021/10/22 03:50:25;;;;;;;;;;;;;;;11.59;59.72;100266.69;4923887;28;117726;-61
2021/10/22 03:52:51;;;;;;;;;;;;;;;11.58;59.87;100262.38;4923564;28;98664;-61
2021/10/22 03:55:17;;;;;;;;;;;;;;;11.57;60.05;100269.69;4923676;28;118874;-58
2021/10/22 03:57:43;;;;;;;;;;;;;;;11.56;60.02;100268.06;4923000;28;126779;-61
2021/10/22 04:00:09;;;;;;;;;;;;;;;11.54;60.05;100271.03;4923999;28;118355;-59
2021/10/22 04:02:35;;;;;;;;;;;;;;;11.54;60.10;100271.03;4923111;28;98479;-62
2021/10/22 04:05:04;;;;;;;;;;;;;;;11.53;59.75;100274.81;4924621;28;97984;-59
2021/10/22 04:07:30;;;;;;;;;;;;;;;11.52;60.15;100280.50;4923117;28;98077;-60
2021/10/22 04:09:56;;;;;;;;;;;;;;;11.51;59.79;100266.22;4924025;28;97886;-58
2021/10/22 04:12:22;;;;;;;;;;;;;;;11.50;59.87;100271.88;4921489;28;128084;-59
2021/10/22 04:14:48;;;;;;;;;;;;;;;11.49;59.70;100267.56;4923103;28;127342;-60
2021/10/22 04:17:14;;;;;;;;;;;;;;;11.47;59.76;100267.00;4921949;28;126304;-58
2021/10/22 04:19:44;;;;;;;;;;;;;;;11.47;59.71;100265.13;4922974;28;116644;-59
2021/10/22 04:22:10;;;;;;;;;;;;;;;11.45;60.15;100261.91;4922979;28;99381;-59
2021/10/22 04:24:36;;;;;;;;;;;;;;;11.45;59.76;100261.09;4923217;28;98256;-61
2021/10/22 04:27:02;;;;;;;;;;;;;;;11.44;59.85;100252.22;4923252;28;98079;-58
2021/10/22 04:29:28;;;;;;;;;;;;;;;11.42;59.92;100251.66;4922898;28;104199;-58
2021/10/22 04:31:54;;;;;;;;;;;;;;;11.42;59.86;100256.25;4923211;28;98475;-60
2021/10/22 04:34:23;;;;;;;;;;;;;;;11.41;60.14;100251.94;4921526;28;127961;-58
2021/10/22 04:36:49;;;;;;;;;;;;;;;11.39;60.28;100254.91;4922623;28;97834;-58
2021/10/22 04:42:00;;;;;;;;;;;;;;;11.37;59.70;100256.28;4917820;28;98172;-58
2021/10/22 04:44:26;;;;;;;;;;;;;;;11.35;59.83;100256.53;4936159;28;128904;-59
2021/10/22 04:46:52;;;;;;;;;;;;;;;11.35;59.82;100258.44;4903849;28;97973;-58
2021/10/22 04:49:18;;;;;;;;;;;;;;;11.33;60.18;100263.31;4901575;28;108275;-59
2021/10/22 04:51:44;;;;;;;;;;;;;;;11.33;60.23;100261.44;4900641;28;126392;-61
2021/10/22 04:54:10;;;;;;;;;;;;;;;11.32;59.88;100265.22;4920549;28;106710;-59
2021/10/22 04:56:36;;;;;;;;;;;;;;;11.31;60.27;100263.59;4918639;28;126512;-61
2021/10/22 04:59:02;;;;;;;;;;;;;;;11.31;59.73;100260.88;4916439;28;117525;-61
2021/10/22 05:01:28;;;;;;;;;;;;;;;11.29;60.15;100254.97;4923167;28;128284;-61
2021/10/22 05:03:55;;;;;;;;;;;;;;;11.27;60.02;100260.63;4884729;28;98448;-58
2021/10/22 05:06:21;;;;;;;;;;;;;;;11.28;60.03;100256.06;4880824;28;98176;-58
2021/10/22 05:08:46;;;;;;;;;;;;;;;11.27;59.52;100260.63;4881146;28;117677;-57
2021/10/22 05:11:12;;;;;;;;;;;;;;;11.26;59.86;100260.91;4879657;28;126244;-57
2021/10/22 05:13:38;;;;;;;;;;;;;;;11.25;59.88;100265.50;4879748;28;127173;-61
2021/10/22 05:16:04;;;;;;;;;;;;;;;11.25;60.07;100275.50;4881042;28;127582;-59
2021/10/22 05:18:31;;;;;;;;;;;;;;;11.23;59.54;100264.16;4883680;28;97776;-58
2021/10/22 05:20:57;;;;;;;;;;;;;;;11.22;60.00;100265.25;4883751;28;99310;-61
2021/10/22 05:23:23;;;;;;;;;;;;;;;11.21;59.89;100264.44;4882476;28;112034;-58
2021/10/22 05:25:49;;;;;;;;;;;;;;;11.21;59.75;100261.75;4883055;28;126939;-57
2021/10/22 05:28:15;;;;;;;;;;;;;;;11.21;59.62;100267.16;4882669;28;117012;-57
2021/10/22 05:30:41;;;;;;;;;;;;;;;11.20;60.00;100257.44;4882869;28;128351;-57
2021/10/22 05:33:09;;;;;;;;;;;;;;;11.20;59.59;100256.63;4882514;28;126876;-58
2021/10/22 05:35:35;;;;;;;;;;;;;;;11.19;59.67;100258.50;4898211;28;97865;-61
2021/10/22 05:38:01;;;;;;;;;;;;;;;11.19;59.66;100271.19;4882782;28;117891;-57
2021/10/22 05:40:27;;;;;;;;;;;;;;;11.20;59.31;100270.09;4883305;28;98918;-58
2021/10/22 05:42:53;;;;;;;;;;;;;;;11.19;59.46;100271.19;4881894;28;128619;-60
2021/10/22 05:45:19;;;;;;;;;;;;;;;11.20;59.46;100272.81;4882317;28;127149;-57
2021/10/22 05:47:45;;;;;;;;;;;;;;;11.21;59.62;100269.03;4882436;28;116175;-57
2021/10/22 05:50:11;;;;;;;;;;;;;;;11.21;59.34;100274.44;4881184;28;112260;-58
2021/10/22 05:52:37;;;;;;;;;;;;;;;11.22;59.40;100282.25;4882925;28;126904;-61
2021/10/22 05:55:03;;;;;;;;;;;;;;;11.23;59.16;100285.75;4881321;28;98577;-57
2021/10/22 05:57:29;;;;;;;;;;;;;;;11.24;59.65;100288.19;4883815;28;98415;-59
2021/10/22 05:59:55;;;;;;;;;;;;;;;11.26;59.42;100287.91;4882224;28;121406;-59
2021/10/22 06:02:21;;;;;;;;;;;;;;;11.25;59.63;100289.78;4884874;28;110372;-59
2021/10/22 06:04:47;;;;;;;;;;;;;;;11.28;59.39;100285.75;4920790;28;98322;-58
2021/10/22 06:07:16;;;;;;;;;;;;;;;11.30;59.05;100294.34;4920606;28;105142;-62
2021/10/22 06:09:42;;;;;;;;;;;;;;;11.33;59.10;100295.72;4922095;28;98405;-60
2021/10/22 06:12:08;;;;;;;;;;;;;;;11.34;59.24;100292.72;4920329;28;115902;-58
2021/10/22 06:14:34;;;;;;;;;;;;;;;11.36;59.52;100290.56;4921385;28;112867;-61
2021/10/22 06:17:02;;;;;;;;;;;;;;;11.38;59.24;100298.38;4922661;28;97783;-57
2021/10/22 06:19:31;;;;;;;;;;;;;;;11.41;59.48;100297.84;4921571;28;99143;-57
2021/10/22 06:24:36;;;;;;;;;;;;;;;11.43;59.38;100303.75;4921343;28;97812;-59
2021/10/22 06:27:01;;;;;;;;;;;;;;;11.45;59.23;100305.09;4921638;28;98078;-61
2021/10/22 06:29:29;;;;;;;;;;;;;;;11.48;59.02;100307.25;4921522;28;98470;-59
2021/10/22 06:31:55;;;;;;;;;;;;;;;11.51;59.46;100322.91;4920492;28;99030;-58
2021/10/22 06:34:23;;;;;;;;;;;;;;;11.53;58.99;100318.00;4920067;28;127700;-61
2021/10/22 06:36:49;;;;;;;;;;;;;;;11.57;58.92;100317.47;4921820;28;97696;-60
2021/10/22 06:39:15;;;;;;;;;;;;;;;11.60;58.83;100314.22;4920818;28;98208;-58
2021/10/22 06:41:41;;;;;;;;;;;;;;;11.63;59.09;100319.88;4920519;28;116553;-58
2021/10/22 06:44:07;;;;;;;;;;;;;;;11.67;59.00;100323.63;4919911;28;127595;-61
2021/10/22 06:46:33;;;;;;;;;;;;;;;11.72;59.24;100322.78;4921354;28;116355;-57
2021/10/22 06:48:59;;;;;;;;;;;;;;;11.75;59.15;100314.94;4920903;28;98462;-60
2021/10/22 06:51:25;;;;;;;;;;;;;;;11.79;59.10;100321.41;4920365;28;128956;-61
2021/10/22 06:53:51;;;;;;;;;;;;;;;11.84;58.79;100319.78;4919288;28;126219;-61
2021/10/22 06:56:18;;;;;;;;;;;;;;;11.90;58.79;100318.66;4922274;28;98256;-61
2021/10/22 06:58:44;;;;;;;;;;;;;;;11.93;58.81;100313.50;4919627;28;98174;-59
2021/10/22 07:01:10;;;;;;;;;;;;;;;11.99;58.80;100304.28;4899486;28;102711;-57
2021/10/22 07:03:43;;;;;;;;;;;;;;;12.06;58.65;100314.75;4914286;28;127717;-58
2021/10/22 07:08:54;;;;;;;;;;;;;;;12.19;58.28;100311.44;4903150;28;98054;-61
2021/10/22 07:11:21;;;;;;;;;;;;;;;12.26;58.22;100311.94;4917978;28;98440;-59
2021/10/22 07:13:54;;;;;;;;;;;;;;;12.34;58.05;100313.22;4931646;28;98093;-58
2021/10/22 07:16:21;;;;;;;;;;;;;;;12.40;57.91;100322.09;4911549;28;98285;-61
2021/10/22 07:18:49;;;;;;;;;;;;;;;12.43;57.98;100311.53;4919985;28;98975;-58
2021/10/22 07:21:15;;;;;;;;;;;;;;;12.51;57.85;100323.63;4920309;28;98605;-57
2021/10/22 07:23:44;;;;;;;;;;;;;;;12.58;57.91;100332.22;4920643;28;98254;-57
2021/10/22 07:26:10;;;;;;;;;;;;;;;12.67;57.63;100327.00;4921772;28;97952;-58
2021/10/22 07:28:35;;;;;;;;;;;;;;;12.74;57.70;100320.19;4919818;28;127120;-61
2021/10/22 07:31:01;;;;;;;;;;;;;;;12.87;57.56;100321.41;4920992;28;113775;-61
2021/10/22 07:33:28;;;;;;;;;;;;;;;13.03;57.13;100322.03;4919291;28;98534;-61
2021/10/22 07:35:56;;;;;;;;;;;;;;;13.22;56.70;100309.38;4921396;28;98004;-61
2021/10/22 07:38:22;;;;;;;;;;;;;;;13.49;56.50;100306.13;4920120;28;98401;-61
2021/10/22 07:40:48;;;;;;;;;;;;;;;13.98;55.72;100315.72;4920857;28;99170;-60
2021/10/22 07:43:14;;;;;;;;;;;;;;;14.27;55.24;100320.19;4920440;28;98957;-61
2021/10/22 07:45:41;;;;;;;;;;;;;;;14.60;54.55;100306.66;4921533;28;97842;-58
2021/10/22 07:48:07;;;;;;;;;;;;;;;15.07;53.80;100310.16;4919715;28;128228;-58
2021/10/22 07:50:34;;;;;;;;;;;;;;;15.55;53.22;100310.53;4913087;28;121121;-61
2021/10/22 07:52:59;;;;;;;;;;;;;;;15.69;53.23;100303.19;4913695;28;98377;-58
2021/10/22 07:55:26;;;;;;;;;;;;;;;15.90;52.74;100289.94;4920739;28;117533;-58
2021/10/22 07:57:52;;;;;;;;;;;;;;;16.17;52.33;100291.78;4920319;28;98076;-61
2021/10/22 08:00:18;;;;;;;;;;;;;;;16.49;52.42;100303.50;4920329;28;98782;-57
2021/10/22 08:02:44;;;;;;;;;;;;;;;17.02;51.45;100288.28;4919657;28;98490;-61
2021/10/22 08:05:10;;;;;;;;;;;;;;;17.52;50.84;100294.19;4919312;28;119460;-59
2021/10/22 08:07:38;;;;;;;;;;;;;;;18.20;50.05;100300.03;4920263;28;98173;-58
2021/10/22 08:10:05;;;;;;;;;;;;;;;18.81;49.42;100295.28;4921136;28;98760;-61
2021/10/22 08:12:31;;;;;;;;;;;;;;;19.60;48.30;100290.22;4920894;28;97969;-58
2021/10/22 08:14:57;;;;;;;;;;;;;;;20.71;46.98;100286.88;4920042;28;97962;-59
2021/10/22 08:17:23;;;;;;;;;;;;;;;21.50;46.07;100301.22;4919654;28;114944;-58
2021/10/22 08:19:56;;;;;;;;;;;;;;;22.45;45.49;100296.13;4920633;28;98608;-62
2021/10/22 08:22:26;;;;;;;;;;;;;;;24.06;43.66;100308.25;4919673;28;98087;-60
2021/10/22 08:24:54;;;;;;;;;;;;;;;26.62;40.77;100296.84;4920826;28;97904;-61
2021/10/22 08:27:20;;;;;;;;;;;;;;;28.98;38.33;100316.72;4919473;28;99095;-62
2021/10/22 08:29:47;;;;;;;;;;;;;;;30.44;37.29;100312.78;4918614;28;121149;-59
2021/10/22 08:32:13;;;;;;;;;;;;;;;31.76;36.40;100315.28;4920761;28;98104;-62
2021/10/22 08:34:39;;;;;;;;;;;;;;;33.19;35.85;100315.28;4918829;28;117465;-62
2021/10/22 08:37:05;;;;;;;;;;;;;;;34.43;34.75;100300.06;4919518;28;100063;-62
2021/10/22 08:39:31;;;;;;;;;;;;;;;35.37;34.43;100288.97;4919855;28;98872;-62
2021/10/22 08:41:58;;;;;;;;;;;;;;;36.27;34.13;100301.19;4919984;28;97976;-62
2021/10/22 08:44:25;;;;;;;;;;;;;;;36.62;34.17;100301.34;4933893;28;111924;-60
2021/10/22 08:46:51;;;;;;;;;;;;;;;36.96;34.38;100291.44;4920184;28;98226;-60
2021/10/22 08:49:17;;;;;;;;;;;;;;;38.06;33.21;100292.31;4917032;28;98583;-60
2021/10/22 08:51:43;;;;;;;;;;;;;;;39.33;32.12;100296.00;4918241;28;126881;-60
2021/10/22 08:54:12;;;;;;;;;;;;;;;40.20;31.52;100288.03;4919820;28;97939;-58
2021/10/22 08:56:41;;;;;;;;;;;;;;;40.52;31.19;100289.31;4919249;28;98786;-60
2021/10/22 08:59:08;;;;;;;;;;;;;;;38.86;28.74;100294.38;4919129;28;120979;-67
2021/10/22 09:01:34;;;;;;;;;;;;;;;33.62;26.63;100256.63;4919573;28;97939;-53
2021/10/22 09:04:00;;;;;;;;;;;;;;;34.51;27.70;100258.75;4919392;28;97830;-65
2021/10/22 09:06:25;;;;;;;;;;;;;;;34.33;29.56;100257.13;4919004;28;127161;-64
2021/10/22 09:08:57;;;;;;;;;;;;;;;33.92;30.58;100261.22;4918046;28;128115;-61
2021/10/22 09:11:25;;;;;;;;;;;;;;;34.41;30.57;100261.31;4920086;28;98102;-61
2021/10/22 09:14:02;;;;;;;;;;;;;;;33.56;32.45;100255.56;4918981;28;97961;-63
2021/10/22 09:16:28;;;;;;;;;;;;;;;32.78;33.29;100241.00;4919914;28;98580;-59
2021/10/22 09:18:54;;;;;;;;;;;;;;;32.50;33.71;100259.78;4917104;28;129224;-59
2021/10/22 09:21:27;;;;;;;;;;;;;;;31.97;34.83;100264.09;4900679;28;127726;-56
2021/10/22 09:24:11;;;;;;;;;;;;;;;31.90;34.65;100255.81;4912887;28;98257;-59
2021/10/22 09:26:37;;;;;;;;;;;;;;;31.66;35.13;100260.47;4931130;28;99235;-56
2021/10/22 09:29:15;;;;;;;;;;;;;;;32.01;34.86;100262.03;4916447;28;98983;-56
2021/10/22 09:31:45;;;;;;;;;;;;;;;32.05;34.50;100258.44;4918554;28;98685;-58
2021/10/22 09:34:11;;;;;;;;;;;;;;;32.37;34.14;100260.75;4918742;28;99489;-61
2021/10/22 09:36:41;;;;;;;;;;;;;;;32.39;34.22;100261.13;4918616;28;126294;-60
2021/10/22 09:39:18;;;;;;;;;;;;;;;32.59;33.94;100258.47;4918613;28;98528;-57
2021/10/22 09:41:54;;;;;;;;;;;;;;;32.98;33.94;100264.19;4917844;28;97856;-62
2021/10/22 09:44:31;;;;;;;;;;;;;;;32.86;34.05;100264.00;4919471;28;97781;-62
2021/10/22 09:47:06;;;;;;;;;;;;;;;32.19;34.94;100292.47;4913270;28;98439;-63
2021/10/22 09:49:52;;;;;;;;;;;;;;;31.74;35.10;100250.81;4918614;28;98434;-62
2021/10/22 09:52:19;;;;;;;;;;;;;;;32.14;34.03;100250.31;4884101;28;98138;-59
2021/10/22 09:54:46;;;;;;;;;;;;;;;31.27;35.36;100250.53;4924545;28;98136;-64
2021/10/22 09:57:15;;;;;;;;;;;;;;;31.68;34.58;100248.94;4916926;28;98593;-57
2021/10/22 09:59:41;;;;;;;;;;;;;;;31.40;35.31;100261.97;4920282;28;98934;-64
2021/10/22 10:02:08;;;;;;;;;;;;;;;30.61;36.32;100253.47;4916210;28;121347;-59
2021/10/22 10:04:34;;;;;;;;;;;;;;;29.84;36.95;100239.66;4916592;28;97947;-60
2021/10/22 10:07:00;;;;;;;;;;;;;;;29.05;38.02;100233.50;4915547;28;127988;-62
2021/10/22 10:09:27;;;;;;;;;;;;;;;28.40;37.98;100238.22;4933265;28;98309;-61
2021/10/22 10:11:54;;;;;;;;;;;;;;;27.96;38.42;100247.59;4899540;28;97993;-62
2021/10/22 10:14:23;;;;;;;;;;;;;;;27.19;38.96;100244.00;4918393;28;98190;-62
2021/10/22 10:16:49;;;;;;;;;;;;;;;26.69;38.99;100240.84;4916455;28;98421;-59
2021/10/22 10:19:27;;;;;;;;;;;;;;;27.32;37.74;100228.69;4920968;28;98268;-61
2021/10/22 10:22:01;;;;;;;;;;;;;;;26.53;39.00;100234.78;4903872;28;99123;-62
2021/10/22 10:24:34;;;;;;;;;;;;;;;25.98;39.74;100216.06;4903635;28;98299;-59
2021/10/22 10:27:11;;;;;;;;;;;;;;;25.59;40.04;100219.09;4938901;28;98934;-59
2021/10/22 10:29:39;;;;;;;;;;;;;;;25.50;39.68;100218.56;4917493;28;98387;-64
2021/10/22 10:32:07;;;;;;;;;;;;;;;25.07;40.37;100212.44;4918218;28;98055;-62
2021/10/22 10:34:38;;;;;;;;;;;;;;;24.63;40.97;100223.16;4916235;28;99535;-62
2021/10/22 10:37:04;;;;;;;;;;;;;;;24.06;41.56;100219.38;4910646;28;99084;-63
2021/10/22 10:39:45;;;;;;;;;;;;;;;23.56;42.04;100226.56;4899529;28;98548;-62
2021/10/22 10:42:26;;;;;;;;;;;;;;;23.03;42.10;100227.78;4918384;28;98288;-58
2021/10/22 10:44:53;;;;;;;;;;;;;;;22.46;42.80;100222.78;4917823;28;97942;-58
2021/10/22 10:47:28;;;;;;;;;;;;;;;22.04;43.25;100232.25;4918425;28;98636;-58
2021/10/22 10:49:53;;;;;;;;;;;;;;;21.56;43.60;100225.78;4919280;28;98571;-61
2021/10/22 10:52:38;;;;;;;;;;;;;;;21.18;44.06;100230.84;4919591;28;98700;-58
2021/10/22 10:55:13;;;;;;;;;;;;;;;20.81;44.23;100209.75;4921389;28;98034;-61
2021/10/22 10:57:54;;;;;;;;;;;;;;;20.51;44.57;100205.59;4921971;28;99526;-58
2021/10/22 11:00:27;;;;;;;;;;;;;;;20.32;44.74;100212.41;4914942;28;99679;-61
2021/10/22 11:03:02;;;;;;;;;;;;;;;20.11;44.97;100211.66;4919983;28;122734;-61
2021/10/22 11:05:50;;;;;;;;;;;;;;;19.82;45.32;100210.63;4921560;28;98015;-58
2021/10/22 11:08:34;;;;;;;;;;;;;;;19.66;45.27;100214.31;4920391;28;98999;-61
2021/10/22 11:11:05;;;;;;;;;;;;;;;19.56;45.23;100202.63;4921535;28;98180;-58
2021/10/22 11:13:53;;;;;;;;;;;;;;;19.43;45.35;100214.63;4922046;28;98422;-61
2021/10/22 11:16:26;;;;;;;;;;;;;;;19.37;45.46;100213.19;4920402;28;112301;-61
2021/10/22 11:19:00;;;;;;;;;;;;;;;19.35;45.42;100210.81;4921150;28;99323;-62
2021/10/22 11:21:26;;;;;;;;;;;;;;;19.40;45.11;100204.34;4921079;28;98101;-61
2021/10/22 11:23:52;;;;;;;;;;;;;;;19.29;45.32;100214.06;4919650;28;120124;-61
2021/10/22 11:26:19;;;;;;;;;;;;;;;19.06;45.78;100205.38;4921602;28;97943;-61
2021/10/22 11:28:49;;;;;;;;;;;;;;;18.87;45.81;100208.53;4920334;28;99061;-58
2021/10/22 11:31:31;;;;;;;;;;;;;;;18.68;46.26;100225.28;4921467;28;98927;-63
2021/10/22 11:33:57;;;;;;;;;;;;;;;18.58;46.13;100206.53;4932808;28;98385;-61
2021/10/22 11:36:25;;;;;;;;;;;;;;;18.52;46.28;100203.19;4919831;28;118119;-58
2021/10/22 11:38:51;;;;;;;;;;;;;;;18.45;46.34;100194.72;4914336;28;99118;-61
2021/10/22 11:41:17;;;;;;;;;;;;;;;18.37;46.41;100201.78;4920230;28;128417;-61
2021/10/22 11:44:21;;;;;;;;;;;;;;;18.19;46.58;100202.97;4920101;28;98009;-61
2021/10/22 11:46:47;;;;;;;;;;;;;;;18.02;47.02;100203.00;4876051;28;118817;-58
2021/10/22 11:49:26;;;;;;;;;;;;;;;17.88;47.09;100209.44;4877547;28;127327;-62
2021/10/22 11:51:53;;;;;;;;;;;;;;;17.78;47.12;100214.41;4900380;28;98275;-61
2021/10/22 11:54:19;;;;;;;;;;;;;;;17.75;47.08;100215.03;4920843;28;98551;-59
2021/10/22 11:56:46;;;;;;;;;;;;;;;17.78;47.16;100215.22;4917729;28;111181;-63
2021/10/22 11:59:13;;;;;;;;;;;;;;;17.84;46.96;100207.66;4920069;28;98279;-59
2021/10/22 12:01:40;;;;;;;;;;;;;;;17.93;46.76;100196.75;4927715;28;99549;-58
2021/10/22 12:04:26;;;;;;;;;;;;;;;17.99;46.74;100203.63;4919989;28;98092;-58
2021/10/22 12:07:00;;;;;;;;;;;;;;;18.02;47.14;100197.53;4933478;28;101185;-59
2021/10/22 12:09:34;;;;;;;;;;;;;;;17.96;47.25;100202.38;4919931;28;122471;-58
2021/10/22 12:12:20;;;;;;;;;;;;;;;17.93;47.32;100194.03;4919748;28;99099;-62
2021/10/22 12:14:47;;;;;;;;;;;;;;;17.87;47.27;100177.81;4914555;28;125686;-61
2021/10/22 12:17:16;;;;;;;;;;;;;;;17.80;47.52;100180.25;4919071;28;97829;-58
2021/10/22 12:19:43;;;;;;;;;;;;;;;17.70;47.80;100182.47;4918958;28;122080;-61
2021/10/22 12:22:09;;;;;;;;;;;;;;;17.56;47.92;100174.47;4901145;28;98028;-61
2021/10/22 12:24:40;;;;;;;;;;;;;;;17.43;47.85;100190.66;4899932;28;99771;-57
2021/10/22 12:27:06;;;;;;;;;;;;;;;17.30;48.16;100180.72;4919263;28;98518;-58
2021/10/22 12:29:55;;;;;;;;;;;;;;;17.19;48.17;100184.84;4919816;28;97921;-58
2021/10/22 12:32:45;;;;;;;;;;;;;;;17.06;48.40;100189.31;4923160;28;98955;-59
2021/10/22 12:35:13;;;;;;;;;;;;;;;16.95;48.68;100170.88;4918190;28;99315;-58
2021/10/22 12:37:43;;;;;;;;;;;;;;;16.84;48.60;100184.78;4902202;28;98083;-58
2021/10/22 12:40:14;;;;;;;;;;;;;;;16.75;48.78;100183.94;4901657;28;98036;-61
2021/10/22 12:42:41;;;;;;;;;;;;;;;16.63;48.79;100189.16;4905256;28;98185;-57
2021/10/22 12:45:18;;;;;;;;;;;;;;;16.55;49.10;100196.16;4918925;28;98992;-58